Time;durP1;ratioP1;P1;durP2;ratioP2;P2;SDS_P1;SDS_P2;PMS_P1;PMS_P2;Temp;Humidity;BMP_temperature;BMP_pressure;BME280_temperature;BME280_humidity;BME280_pressure;Samples;Min_cycle;Max_cycle;Signal;HPM_P1;HPM_P2
2022/04/30 00:02:23;;;;;;;11.10;5.10;;;;;;;10.76;60.60;100487.31;4432292;32;34533;-75
2022/04/30 00:05:10;;;;;;;16.37;8.45;;;;;;;11.08;59.97;100478.41;4431763;32;34137;-75
2022/04/30 00:07:58;;;;;;;18.87;8.27;;;;;;;11.02;61.49;100479.59;4432867;32;34850;-75
2022/04/30 00:10:45;;;;;;;21.08;9.77;;;;;;;10.82;62.72;100474.34;4421009;32;35475;-76
2022/04/30 00:13:37;;;;;;;20.40;8.95;;;;;;;10.88;62.95;100478.66;4432518;32;34607;-75
2022/04/30 00:16:24;;;;;;;22.58;9.75;;;;;;;11.02;61.37;100477.66;4431618;32;33099;-75
2022/04/30 00:19:11;;;;;;;18.30;9.98;;;;;;;10.86;61.10;100470.72;4431300;32;34351;-75
2022/04/30 00:21:58;;;;;;;19.02;10.00;;;;;;;10.83;61.56;100465.81;4420887;32;34996;-76
2022/04/30 00:24:45;;;;;;;11.70;6.40;;;;;;;10.80;61.75;100472.69;4410006;32;34539;-75
2022/04/30 00:27:34;;;;;;;15.70;6.53;;;;;;;11.17;58.34;100473.09;4432297;32;35081;-75
2022/04/30 00:30:21;;;;;;;23.45;8.73;;;;;;;11.22;57.84;100470.28;4432444;32;34559;-75
2022/04/30 00:33:09;;;;;;;14.43;7.20;;;;;;;10.90;59.02;100476.41;4420114;32;35978;-75
2022/04/30 00:35:56;;;;;;;12.73;6.37;;;;;;;10.57;60.82;100468.84;4433167;32;35523;-75
2022/04/30 00:38:43;;;;;;;15.07;8.02;;;;;;;10.89;60.27;100472.06;4432128;32;34934;-75
2022/04/30 00:41:32;;;;;;;15.32;7.78;;;;;;;10.91;59.84;100476.16;4430663;32;34668;-75
2022/04/30 00:44:18;;;;;;;15.57;8.63;;;;;;;10.96;60.43;100470.59;4432179;32;34646;-75
2022/04/30 00:47:05;;;;;;;13.23;7.50;;;;;;;10.90;60.96;100476.41;4431764;32;34627;-75
2022/04/30 00:49:52;;;;;;;14.13;6.97;;;;;;;10.87;61.20;100477.00;4420272;32;33714;-75
2022/04/30 00:52:39;;;;;;;12.10;7.45;;;;;;;10.92;60.24;100476.97;4431966;32;34638;-75
2022/04/30 00:55:29;;;;;;;13.25;6.80;;;;;;;10.40;62.81;100470.41;4420380;32;35185;-75
2022/04/30 00:58:18;;;;;;;12.88;7.12;;;;;;;10.72;61.03;100476.09;4431720;32;33768;-75
2022/04/30 01:01:05;;;;;;;14.38;8.13;;;;;;;10.18;63.28;100482.62;4420293;32;35305;-75
2022/04/30 01:03:53;;;;;;;16.27;7.97;;;;;;;9.91;64.67;100478.47;4431090;32;34636;-75
2022/04/30 01:06:56;;;;;;;10.52;5.82;;;;;;;9.89;64.81;100488.88;4431592;32;35738;-75
2022/04/30 01:09:44;;;;;;;11.05;6.18;;;;;;;10.34;62.97;100489.62;4420299;32;34132;-75
2022/04/30 01:12:31;;;;;;;9.50;5.37;;;;;;;10.07;64.15;100486.56;4420364;32;35052;-75
2022/04/30 01:15:18;;;;;;;10.40;5.75;;;;;;;10.43;62.31;100480.78;4432022;32;34689;-75
2022/04/30 01:18:10;;;;;;;10.77;5.90;;;;;;;9.96;63.48;100479.53;4431548;32;35050;-75
2022/04/30 01:21:03;;;;;;;10.45;5.90;;;;;;;9.96;63.52;100477.63;4420456;32;35137;-75
2022/04/30 01:23:52;;;;;;;13.65;6.00;;;;;;;9.80;64.01;100468.72;4434304;32;34265;-75
2022/04/30 01:26:39;;;;;;;9.57;5.78;;;;;;;9.43;64.95;100475.53;4433414;32;34599;-75
2022/04/30 01:29:30;;;;;;;9.80;5.47;;;;;;;9.22;66.18;100474.84;4422282;32;34865;-74
2022/04/30 01:38:29;;;;;;;11.75;5.53;;;;;;;9.87;64.23;100477.41;4423481;32;34646;-75
2022/04/30 01:41:16;;;;;;;9.88;5.65;;;;;;;10.03;63.87;100469.88;4411337;32;34465;-75
2022/04/30 01:44:03;;;;;;;9.50;5.05;;;;;;;9.69;65.35;100469.88;4434074;32;34556;-74
2022/04/30 01:46:49;;;;;;;9.00;4.82;;;;;;;9.68;65.66;100462.78;4421493;32;34778;-74
2022/04/30 01:49:36;;;;;;;9.30;5.18;;;;;;;9.83;65.00;100459.94;4432932;32;34783;-74
2022/04/30 01:52:23;;;;;;;8.48;4.85;;;;;;;9.81;65.11;100453.91;4433744;32;35008;-75
2022/04/30 01:55:10;;;;;;;9.15;4.97;;;;;;;9.78;65.21;100449.00;4432850;32;34581;-74
2022/04/30 01:57:57;;;;;;;9.15;4.65;;;;;;;9.91;64.81;100447.56;4421543;32;37561;-74
2022/04/30 02:00:44;;;;;;;6.72;4.25;;;;;;;9.60;65.26;100449.72;4433903;32;34997;-74
2022/04/30 02:03:31;;;;;;;8.15;4.55;;;;;;;9.87;64.84;100455.50;4433898;32;35194;-74
2022/04/30 02:06:21;;;;;;;10.65;5.12;;;;;;;9.73;65.18;100443.56;4433305;32;35440;-74
2022/04/30 02:09:08;;;;;;;8.65;4.95;;;;;;;9.60;65.17;100439.56;4433753;32;35119;-74
2022/04/30 02:11:59;;;;;;;8.30;4.43;;;;;;;9.30;66.30;100442.50;4432612;32;35561;-75
2022/04/30 02:14:48;;;;;;;10.53;5.13;;;;;;;8.63;69.11;100444.75;4433778;32;35617;-74
2022/04/30 02:17:38;;;;;;;9.02;5.07;;;;;;;8.74;68.91;100449.09;4411055;32;35393;-74
2022/04/30 02:20:26;;;;;;;10.30;5.65;;;;;;;8.74;68.88;100443.63;4422261;32;34255;-74
2022/04/30 02:23:14;;;;;;;7.90;4.50;;;;;;;9.00;67.88;100442.41;4422264;32;35556;-74
2022/04/30 02:26:04;;;;;;;9.43;4.78;;;;;;;9.40;66.60;100439.72;4433488;32;34656;-74
2022/04/30 02:28:51;;;;;;;8.30;4.85;;;;;;;9.37;66.65;100441.09;4434573;32;34708;-74
2022/04/30 02:31:38;;;;;;;9.45;4.70;;;;;;;9.17;66.62;100442.03;4433803;32;34170;-74
2022/04/30 02:34:24;;;;;;;12.23;4.75;;;;;;;9.36;66.13;100441.38;4433683;32;34627;-74
2022/04/30 02:37:14;;;;;;;9.25;5.10;;;;;;;9.40;66.12;100443.28;4432783;32;35515;-74
2022/04/30 02:40:02;;;;;;;8.73;5.15;;;;;;;9.36;66.66;100442.22;4433373;32;34119;-74
2022/04/30 02:42:52;;;;;;;7.18;4.35;;;;;;;9.18;67.24;100437.37;4433225;32;34215;-74
2022/04/30 02:45:41;;;;;;;9.48;4.80;;;;;;;9.38;66.64;100440.00;4432245;32;34611;-74
2022/04/30 02:48:28;;;;;;;8.98;5.00;;;;;;;9.34;66.86;100429.91;4422069;32;36035;-74
2022/04/30 02:51:15;;;;;;;8.18;4.68;;;;;;;9.12;67.57;100433.06;4432628;32;35010;-74
2022/04/30 02:54:02;;;;;;;8.70;4.50;;;;;;;8.81;68.52;100435.94;4433531;32;33726;-74
2022/04/30 02:56:48;;;;;;;8.70;4.15;;;;;;;8.93;68.04;100428.22;4433377;32;34617;-74
2022/04/30 03:02:41;;;;;;;8.77;5.28;;;;;;;8.65;68.68;100417.94;4433467;32;34526;-74
2022/04/30 03:05:28;;;;;;;11.77;5.90;;;;;;;8.79;68.01;100408.06;4433054;32;34212;-74
2022/04/30 03:08:22;;;;;;;8.20;4.25;;;;;;;8.57;68.88;100405.72;4433644;32;34832;-74
2022/04/30 03:11:09;;;;;;;7.70;4.28;;;;;;;8.77;68.43;100413.81;4433471;32;34955;-74
2022/04/30 03:13:57;;;;;;;7.72;4.62;;;;;;;8.76;68.51;100414.06;4433520;32;35774;-74
2022/04/30 03:22:55;;;;;;;8.25;4.60;;;;;;;8.55;68.93;100414.16;4422491;32;35994;-74
2022/04/30 03:25:42;;;;;;;8.90;4.45;;;;;;;8.65;68.61;100420.69;4433901;32;35463;-74
2022/04/30 03:28:29;;;;;;;8.35;4.37;;;;;;;8.64;68.90;100416.31;4433378;32;34187;-74
2022/04/30 03:31:17;;;;;;;8.32;4.80;;;;;;;8.70;68.75;100420.66;4432038;32;35551;-74
2022/04/30 03:34:04;;;;;;;8.25;4.43;;;;;;;8.71;68.34;100420.41;4433174;32;36035;-74
2022/04/30 03:36:50;;;;;;;10.32;4.72;;;;;;;8.49;68.72;100425.41;4433123;32;34140;-73
2022/04/30 03:39:39;;;;;;;7.80;4.45;;;;;;;8.05;70.37;100424.09;4433279;32;34110;-74
2022/04/30 03:42:26;;;;;;;7.87;4.25;;;;;;;8.07;70.69;100418.34;4421333;32;35114;-74
2022/04/30 03:45:12;;;;;;;5.62;3.80;;;;;;;8.53;69.45;100419.06;4432239;32;34571;-74
2022/04/30 03:47:58;;;;;;;6.07;4.10;;;;;;;8.69;68.49;100424.50;4433098;32;34249;-74
2022/04/30 03:50:45;;;;;;;8.30;4.50;;;;;;;8.34;69.19;100424.31;4432984;32;34154;-74
2022/04/30 03:53:32;;;;;;;9.43;4.68;;;;;;;8.59;68.75;100424.53;4432772;32;34808;-74
2022/04/30 03:56:24;;;;;;;9.00;4.57;;;;;;;8.59;68.86;100424.53;4432585;32;34583;-74
2022/04/30 03:59:18;;;;;;;8.50;5.12;;;;;;;8.61;68.84;100425.88;4432828;32;34406;-74
2022/04/30 04:02:05;;;;;;;9.77;4.75;;;;;;;8.51;69.32;100423.22;4433081;32;35037;-74
2022/04/30 04:04:54;;;;;;;7.95;4.62;;;;;;;8.16;71.16;100418.59;4432534;32;34679;-74
2022/04/30 04:07:42;;;;;;;8.88;4.85;;;;;;;8.48;70.59;100421.84;4432976;32;35010;-74
2022/04/30 04:10:28;;;;;;;10.38;5.10;;;;;;;8.50;70.17;100427.03;4420988;32;34563;-74
2022/04/30 04:19:30;;;;;;;8.88;4.95;;;;;;;8.76;69.55;100435.94;4432556;32;34961;-75
2022/04/30 04:22:17;;;;;;;8.02;4.90;;;;;;;8.80;69.51;100441.69;4432915;32;33744;-74
2022/04/30 04:28:10;;;;;;;8.23;5.00;;;;;;;8.78;69.72;100441.94;4422651;32;34646;-74
2022/04/30 04:30:58;;;;;;;8.27;5.55;;;;;;;9.05;69.33;100432.53;4431678;32;35094;-74
2022/04/30 04:33:44;;;;;;;9.23;5.07;;;;;;;9.27;68.66;100441.16;4432198;32;34640;-74
2022/04/30 04:39:27;;;;;;;11.43;6.18;;;;;;;9.27;68.06;100434.88;4412188;32;34578;-74
2022/04/30 04:42:15;;;;;;;12.43;6.40;;;;;;;9.36;68.23;100431.28;4431705;32;35922;-74
2022/04/30 04:45:04;;;;;;;13.90;6.32;;;;;;;9.20;69.11;100440.66;4419803;32;34682;-74
2022/04/30 04:47:50;;;;;;;10.68;7.00;;;;;;;9.41;68.82;100441.34;4420953;32;35156;-74
2022/04/30 04:50:38;;;;;;;14.87;6.82;;;;;;;9.50;68.96;100438.81;4408870;32;35196;-74
2022/04/30 04:53:25;;;;;;;10.50;6.95;;;;;;;9.52;69.33;100436.63;4431035;32;33892;-75
2022/04/30 04:56:13;;;;;;;13.05;7.30;;;;;;;9.24;68.83;100439.81;4420946;32;34432;-74
2022/04/30 04:59:00;;;;;;;12.40;7.32;;;;;;;8.93;70.78;100446.53;4432879;32;35132;-75
2022/04/30 05:01:48;;;;;;;11.25;6.75;;;;;;;9.09;70.49;100439.91;4433594;32;34792;-75
2022/04/30 05:04:44;;;;;;;10.40;7.03;;;;;;;9.40;70.32;100446.00;4434278;32;34967;-74
2022/04/30 05:07:32;;;;;;;12.20;7.60;;;;;;;9.53;69.70;100441.00;4434506;32;34270;-74
2022/04/30 05:10:21;;;;;;;15.18;8.23;;;;;;;9.48;70.68;100435.56;4433703;32;34158;-75
2022/04/30 05:13:12;;;;;;;12.93;7.00;;;;;;;9.45;71.29;100432.31;4423412;32;34709;-74
2022/04/30 05:16:00;;;;;;;12.10;7.28;;;;;;;9.73;70.87;100443.56;4432961;32;36113;-74
2022/04/30 05:18:53;;;;;;;11.70;7.10;;;;;;;9.94;70.21;100443.44;4411181;32;34159;-75
2022/04/30 05:21:41;;;;;;;11.55;6.70;;;;;;;10.54;68.69;100441.22;4422183;32;33645;-75
2022/04/30 05:24:34;;;;;;;11.65;6.87;;;;;;;10.94;68.38;100439.09;4433018;32;34611;-75
2022/04/30 05:27:27;;;;;;;12.65;6.45;;;;;;;10.64;68.98;100438.34;4434282;32;34693;-75
2022/04/30 05:30:26;;;;;;;9.88;6.05;;;;;;;11.21;67.16;100444.78;4432103;32;35532;-75
2022/04/30 05:33:26;;;;;;;10.07;5.70;;;;;;;11.40;63.81;100446.69;4433605;32;34054;-75
2022/04/30 05:36:15;;;;;;;9.18;5.30;;;;;;;11.73;61.54;100438.53;4434548;32;34405;-75
2022/04/30 05:39:02;;;;;;;8.32;5.40;;;;;;;12.08;58.55;100446.19;4432511;32;34928;-75
2022/04/30 05:41:49;;;;;;;9.48;5.03;;;;;;;12.52;57.46;100441.25;4432323;32;35435;-75
2022/04/30 05:44:37;;;;;;;10.75;4.72;;;;;;;12.84;56.51;100432.12;4433275;32;34034;-75
2022/04/30 05:47:32;;;;;;;9.65;4.82;;;;;;;13.06;54.53;100439.63;4433149;32;34706;-75
2022/04/30 05:50:29;;;;;;;9.65;4.65;;;;;;;13.17;54.09;100437.47;4422380;32;35937;-75
2022/04/30 05:53:18;;;;;;;7.22;4.32;;;;;;;13.56;53.44;100433.31;4433536;32;35372;-76
2022/04/30 05:56:09;;;;;;;9.93;4.45;;;;;;;13.82;52.42;100442.59;4422541;32;34575;-76
2022/04/30 05:58:58;;;;;;;7.30;4.20;;;;;;;13.91;51.39;100443.44;4433944;32;34689;-76
2022/04/30 06:01:47;;;;;;;7.25;4.18;;;;;;;13.79;50.99;100445.97;4432146;32;35649;-76
2022/04/30 06:04:36;;;;;;;7.53;4.05;;;;;;;14.11;50.09;100433.84;4434087;32;34126;-76
2022/04/30 06:07:27;;;;;;;6.93;4.03;;;;;;;14.37;47.50;100436.78;4433557;32;33676;-76
2022/04/30 06:10:15;;;;;;;6.80;4.37;;;;;;;13.90;48.22;100439.09;4421469;32;36262;-75
2022/04/30 06:13:18;;;;;;;6.57;3.97;;;;;;;14.51;47.00;100436.66;4424297;32;35938;-76
2022/04/30 06:16:16;;;;;;;7.70;3.70;;;;;;;14.92;47.15;100437.50;4411256;32;35166;-76
2022/04/30 06:19:22;;;;;;;7.05;3.92;;;;;;;14.75;46.50;100425.28;4422714;32;34059;-75
2022/04/30 06:22:13;;;;;;;7.72;4.20;;;;;;;14.70;46.06;100436.44;4417059;32;34141;-76
2022/04/30 06:25:06;;;;;;;8.00;3.83;;;;;;;14.49;45.31;100438.13;4418833;32;34041;-76
2022/04/30 06:27:55;;;;;;;6.75;3.62;;;;;;;15.07;45.63;100437.84;4405466;32;34533;-76
2022/04/30 06:30:51;;;;;;;6.78;3.72;;;;;;;15.06;45.37;100432.66;4413474;32;34681;-76
2022/04/30 06:33:40;;;;;;;7.93;4.00;;;;;;;15.01;44.57;100435.56;4417684;32;34674;-76
2022/04/30 06:36:31;;;;;;;7.55;4.07;;;;;;;15.47;44.83;100440.50;4415810;32;35412;-76
2022/04/30 06:39:19;;;;;;;7.53;4.20;;;;;;;15.71;46.06;100442.81;4427158;32;33722;-76
2022/04/30 06:42:14;;;;;;;7.75;4.60;;;;;;;16.04;43.16;100445.03;4426276;32;34096;-76
2022/04/30 06:45:05;;;;;;;9.82;4.45;;;;;;;15.74;43.08;100450.44;4417755;32;35568;-77
2022/04/30 06:47:57;;;;;;;9.52;4.50;;;;;;;15.70;43.52;100446.69;4408112;32;35980;-76
2022/04/30 06:50:45;;;;;;;7.15;4.37;;;;;;;15.60;43.77;100438.72;4414672;32;35388;-76
2022/04/30 06:59:51;;;;;;;8.88;4.43;;;;;;;16.22;42.92;100436.69;4418064;32;34928;-77
2022/04/30 07:02:55;;;;;;;6.82;4.47;;;;;;;16.25;42.53;100431.34;4417206;32;34575;-76
2022/04/30 07:06:04;;;;;;;7.55;4.85;;;;;;;16.11;42.97;100442.59;4416730;32;34146;-76
2022/04/30 07:09:05;;;;;;;7.93;4.47;;;;;;;16.30;42.82;100441.41;4417562;32;34653;-76
2022/04/30 07:11:56;;;;;;;7.80;3.95;;;;;;;16.33;42.37;100437.97;4411412;32;34450;-76
2022/04/30 07:14:44;;;;;;;9.85;4.80;;;;;;;16.44;43.48;100439.25;4416713;32;34626;-76
2022/04/30 07:17:35;;;;;;;11.20;5.15;;;;;;;16.61;42.23;100433.63;4427175;32;34036;-76
2022/04/30 07:20:27;;;;;;;8.40;4.45;;;;;;;16.73;43.28;100434.88;4419620;32;34684;-76
2022/04/30 07:23:15;;;;;;;7.07;4.45;;;;;;;16.77;43.29;100438.66;4429420;32;34956;-76
2022/04/30 07:26:04;;;;;;;6.62;4.55;;;;;;;16.94;43.18;100429.44;4418691;32;35489;-77
2022/04/30 07:28:52;;;;;;;9.75;4.68;;;;;;;17.21;41.23;100428.94;4430799;32;33312;-78
2022/04/30 07:31:47;;;;;;;9.27;4.90;;;;;;;17.31;41.54;100433.28;4421456;32;34626;-77
2022/04/30 07:34:36;;;;;;;6.78;4.25;;;;;;;17.29;41.21;100424.50;4430830;32;35670;-77
2022/04/30 07:37:27;;;;;;;8.63;4.62;;;;;;;17.82;41.65;100424.91;4411402;32;34518;-77
2022/04/30 07:40:15;;;;;;;7.32;5.03;;;;;;;17.67;40.84;100423.53;4429054;32;33631;-76
2022/04/30 07:43:03;;;;;;;9.32;4.97;;;;;;;17.58;40.53;100420.03;4430877;32;34042;-77
2022/04/30 07:45:59;;;;;;;9.30;4.53;;;;;;;17.63;41.72;100417.06;4429981;32;34651;-78
2022/04/30 07:48:55;;;;;;;7.53;5.43;;;;;;;17.75;40.54;100419.87;4432687;32;35097;-78
2022/04/30 07:51:55;;;;;;;10.35;4.90;;;;;;;17.30;40.94;100417.78;4432552;32;33938;-77
2022/04/30 07:54:45;;;;;;;9.93;4.62;;;;;;;18.04;40.47;100416.19;4432282;32;34752;-78
2022/04/30 07:57:39;;;;;;;9.23;4.80;;;;;;;18.28;40.54;100415.44;4432149;32;34975;-77
2022/04/30 08:00:29;;;;;;;9.95;4.95;;;;;;;18.68;41.17;100417.56;4431849;32;34636;-77
2022/04/30 08:03:25;;;;;;;9.93;5.15;;;;;;;18.76;38.87;100416.66;4420674;32;33746;-76
2022/04/30 08:06:19;;;;;;;7.55;4.80;;;;;;;18.87;39.11;100405.91;4429884;32;34189;-77
2022/04/30 08:09:10;;;;;;;9.85;4.90;;;;;;;18.75;38.57;100412.25;4420094;32;35972;-77
2022/04/30 08:11:58;;;;;;;10.88;4.78;;;;;;;18.60;39.23;100422.06;4430029;32;34577;-77
2022/04/30 08:14:47;;;;;;;7.57;5.00;;;;;;;18.88;38.20;100413.87;4430635;32;35033;-77
2022/04/30 08:17:34;;;;;;;7.90;4.82;;;;;;;18.81;38.40;100415.63;4413454;32;34677;-77
2022/04/30 08:20:23;;;;;;;7.90;4.65;;;;;;;19.03;38.17;100417.09;4420453;32;34557;-77
2022/04/30 08:23:13;;;;;;;7.40;4.53;;;;;;;19.24;38.27;100415.00;4420599;32;34114;-77
2022/04/30 08:26:01;;;;;;;9.32;5.12;;;;;;;18.11;39.85;100404.53;4431421;32;34194;-77
2022/04/30 08:28:58;;;;;;;8.10;4.75;;;;;;;19.12;38.15;100415.00;4421493;32;34337;-78
2022/04/30 08:31:49;;;;;;;9.95;4.70;;;;;;;19.15;38.38;100414.31;4421523;32;34563;-78
2022/04/30 08:34:39;;;;;;;7.82;4.00;;;;;;;19.48;37.54;100410.53;4433645;32;34458;-78
2022/04/30 08:37:40;;;;;;;6.62;3.70;;;;;;;19.37;37.59;100403.84;4433781;32;35015;-79
2022/04/30 08:40:26;;;;;;;6.80;4.22;;;;;;;19.73;35.52;100411.28;4433273;32;34808;-78
2022/04/30 08:43:21;;;;;;;7.03;3.42;;;;;;;19.87;35.41;100410.88;4433191;32;35964;-78
2022/04/30 08:46:10;;;;;;;6.95;3.58;;;;;;;20.07;32.84;100407.06;4422821;32;35302;-79
2022/04/30 08:49:02;;;;;;;6.87;3.70;;;;;;;19.39;34.50;100401.53;4432936;32;33549;-77
2022/04/30 08:52:05;;;;;;;6.32;3.37;;;;;;;19.96;34.91;100406.75;4423165;32;34285;-77
2022/04/30 08:54:54;;;;;;;7.72;3.20;;;;;;;20.77;33.91;100402.87;4420389;32;34896;-77
2022/04/30 08:57:41;;;;;;;6.60;3.60;;;;;;;20.88;32.39;100404.75;4432243;32;35147;-78
2022/04/30 09:00:28;;;;;;;5.93;3.40;;;;;;;20.04;31.47;100393.88;4433004;32;33703;-77
2022/04/30 09:03:18;;;;;;;6.70;3.40;;;;;;;20.37;33.59;100395.50;4421522;32;35455;-77
2022/04/30 09:06:06;;;;;;;4.70;3.17;;;;;;;20.59;32.59;100392.13;4434209;32;34419;-79
2022/04/30 09:08:53;;;;;;;5.90;3.35;;;;;;;20.51;31.71;100383.91;4421077;32;35134;-78
2022/04/30 09:11:39;;;;;;;4.07;2.83;;;;;;;20.65;32.97;100390.66;4433644;32;34109;-77
2022/04/30 09:14:31;;;;;;;6.57;3.50;;;;;;;20.98;29.34;100380.31;4431854;32;34301;-78
2022/04/30 09:17:26;;;;;;;6.87;3.25;;;;;;;21.11;29.05;100374.22;4433216;32;34888;-78
2022/04/30 09:20:18;;;;;;;5.55;3.40;;;;;;;20.79;31.47;100378.25;4400675;32;34596;-78
2022/04/30 09:23:08;;;;;;;4.80;3.15;;;;;;;20.69;31.25;100378.81;4410413;32;34036;-78
2022/04/30 09:26:03;;;;;;;7.60;3.58;;;;;;;20.10;31.34;100381.31;4421916;32;34688;-78
2022/04/30 09:29:02;;;;;;;5.87;2.80;;;;;;;20.77;31.99;100369.44;4418871;32;35799;-78
2022/04/30 09:31:52;;;;;;;5.25;2.85;;;;;;;21.31;28.97;100365.87;4419775;32;35450;-79
2022/04/30 09:37:56;;;;;;;5.15;3.20;;;;;;;20.57;29.30;100365.81;4422466;32;35818;-77
2022/04/30 09:40:56;;;;;;;6.57;3.72;;;;;;;21.20;29.72;100364.84;4418280;32;35603;-78
2022/04/30 09:43:43;;;;;;;5.55;2.95;;;;;;;21.39;29.75;100352.94;4421895;32;34452;-79
2022/04/30 09:46:30;;;;;;;8.32;4.07;;;;;;;21.75;30.14;100352.47;4422286;32;34984;-79
2022/04/30 09:55:29;;;;;;;6.85;3.95;;;;;;;21.41;29.75;100345.03;4434559;32;34959;-80
2022/04/30 09:58:28;;;;;;;6.30;3.60;;;;;;;20.90;29.81;100340.31;4402809;32;35091;-79
2022/04/30 10:04:17;;;;;;;6.03;3.87;;;;;;;21.55;30.01;100337.75;4421349;32;35019;-79
2022/04/30 10:07:06;;;;;;;6.68;4.03;;;;;;;21.90;28.46;100325.63;4422474;32;35471;-80
2022/04/30 10:10:18;;;;;;;6.55;3.42;;;;;;;21.93;28.46;100324.91;4422672;32;33985;-79
2022/04/30 10:16:22;;;;;;;7.57;3.58;;;;;;;21.73;27.01;100326.13;4422900;32;34906;-79
2022/04/30 10:19:20;;;;;;;5.68;3.50;;;;;;;21.84;28.95;100310.38;4411913;32;35009;-80
2022/04/30 10:22:15;;;;;;;6.78;3.75;;;;;;;21.45;30.39;100316.03;4404948;32;34206;-81
2022/04/30 10:25:03;;;;;;;5.35;3.28;;;;;;;21.44;29.48;100311.63;4418099;32;33433;-79
2022/04/30 10:31:06;;;;;;;5.68;4.15;;;;;;;21.35;30.03;100316.59;4415194;32;35083;-80
2022/04/30 10:33:53;;;;;;;;;;;;;;;21.45;28.93;100313.22;4417301;32;34131;-80
2022/04/30 10:36:44;;;;;;;8.32;4.07;;;;;;;21.91;28.66;100309.69;4417541;32;33740;-79
2022/04/30 10:39:33;;;;;;;6.07;4.18;;;;;;;21.75;29.66;100307.03;4403914;32;34972;-79
2022/04/30 10:42:43;;;;;;;8.02;3.65;;;;;;;22.33;27.85;100304.06;4416467;32;34609;-79
2022/04/30 10:45:33;;;;;;;7.60;4.00;;;;;;;22.55;29.63;100299.62;4406758;32;34127;-79
2022/04/30 10:48:20;;;;;;;5.75;3.70;;;;;;;22.67;30.27;100293.81;4413960;32;34693;-80
2022/04/30 10:54:18;;;;;;;5.97;3.12;;;;;;;23.03;27.85;100287.94;4405765;32;34669;-80
2022/04/30 11:00:15;;;;;;;6.43;4.32;;;;;;;23.28;28.22;100297.44;4415886;32;34656;-80
2022/04/30 11:03:15;;;;;;;6.37;4.03;;;;;;;23.59;26.34;100281.37;4416497;32;34893;-80
2022/04/30 11:06:14;;;;;;;6.40;3.50;;;;;;;23.66;28.66;100281.47;4416855;32;34592;-79
2022/04/30 11:09:11;;;;;;;7.12;3.40;;;;;;;23.38;25.51;100278.38;4416781;32;34050;-79
2022/04/30 11:11:58;;;;;;;6.55;4.00;;;;;;;23.43;25.26;100281.63;4417681;32;34222;-79
2022/04/30 11:14:46;;;;;;;5.50;3.40;;;;;;;23.70;27.00;100271.13;4416392;32;35516;-79
2022/04/30 11:17:53;;;;;;;5.07;3.67;;;;;;;24.33;23.19;100266.47;4415271;32;34452;-79
2022/04/30 11:20:41;;;;;;;6.95;3.30;;;;;;;24.15;23.58;100263.53;4421027;32;34506;-79
2022/04/30 11:23:36;;;;;;;5.87;3.60;;;;;;;24.57;22.66;100265.06;4432450;32;35619;-79
2022/04/30 11:26:30;;;;;;;7.55;4.00;;;;;;;24.65;24.75;100272.31;4432968;32;36345;-80
2022/04/30 11:29:19;;;;;;;5.72;3.00;;;;;;;24.58;24.67;100272.28;4421659;32;34562;-79
2022/04/30 11:32:08;;;;;;;6.47;3.25;;;;;;;24.65;22.36;100268.72;4419783;32;34118;-80
2022/04/30 11:34:55;;;;;;;6.43;3.80;;;;;;;24.52;22.35;100259.03;4421355;32;34604;-80
2022/04/30 11:37:43;;;;;;;5.97;3.65;;;;;;;24.88;21.00;100246.81;4420370;32;34949;-81
2022/04/30 11:40:44;;;;;;;6.32;3.50;;;;;;;24.18;24.59;100248.75;4409796;32;36374;-80
2022/04/30 11:43:32;;;;;;;6.40;3.45;;;;;;;23.32;26.64;100242.38;4432245;32;34112;-79
2022/04/30 11:46:36;;;;;;;7.50;3.12;;;;;;;23.63;24.14;100243.09;4410603;32;34559;-79
2022/04/30 11:49:29;;;;;;;5.50;3.35;;;;;;;23.62;25.97;100238.66;4417680;32;35851;-79
2022/04/30 11:52:25;;;;;;;6.97;3.53;;;;;;;24.45;24.40;100245.81;4420588;32;34056;-80
2022/04/30 11:55:15;;;;;;;7.10;3.53;;;;;;;24.96;23.14;100230.84;4428426;32;35093;-80
2022/04/30 11:58:11;;;;;;;5.15;3.08;;;;;;;25.01;26.25;100235.25;4419848;32;34183;-80
2022/04/30 12:01:29;;;;;;;6.87;3.30;;;;;;;25.24;20.54;100232.94;4421697;32;35981;-81
2022/04/30 12:04:25;;;;;;;4.65;3.12;;;;;;;22.55;23.64;100226.22;4427869;32;34919;-80
2022/04/30 12:07:15;;;;;;;5.70;3.37;;;;;;;24.62;23.57;100211.47;4431229;32;34979;-81
2022/04/30 12:10:17;;;;;;;7.03;3.30;;;;;;;24.59;23.78;100206.66;4429080;32;34707;-80
2022/04/30 12:13:04;;;;;;;4.80;3.50;;;;;;;25.36;21.83;100206.56;4419713;32;35000;-81
2022/04/30 12:16:05;;;;;;;5.93;3.20;;;;;;;25.57;23.35;100209.38;4419269;32;34225;-79
2022/04/30 12:25:27;;;;;;;5.28;3.40;;;;;;;25.65;21.08;100210.19;4429575;32;35646;-79
2022/04/30 12:28:15;;;;;;;5.78;3.60;;;;;;;25.83;20.63;100207.41;4418572;32;34567;-79
2022/04/30 12:31:09;;;;;;;7.15;3.97;;;;;;;25.17;21.30;100196.50;4419638;32;34051;-81
2022/04/30 12:33:59;;;;;;;6.62;3.78;;;;;;;24.64;22.84;100199.87;4418946;32;33497;-79
2022/04/30 12:36:55;;;;;;;8.82;3.70;;;;;;;24.35;23.57;100198.88;4429279;32;34914;-79
2022/04/30 12:39:43;;;;;;;6.18;3.58;;;;;;;24.73;23.18;100194.69;4416731;32;33987;-79
2022/04/30 12:42:31;;;;;;;5.72;3.42;;;;;;;23.77;24.01;100197.69;4419932;32;33784;-80
2022/04/30 12:45:26;;;;;;;3.78;2.83;;;;;;;23.64;23.41;100197.13;4406924;32;34295;-79
2022/04/30 12:48:15;;;;;;;5.72;3.83;;;;;;;23.46;24.56;100198.97;4419671;32;35990;-80
2022/04/30 12:51:08;;;;;;;4.70;3.20;;;;;;;23.23;24.33;100194.34;4417255;32;34120;-80
2022/04/30 12:53:55;;;;;;;5.35;3.10;;;;;;;23.27;22.94;100183.19;4419372;32;34673;-80
2022/04/30 12:56:48;;;;;;;5.15;2.92;;;;;;;22.70;23.89;100188.09;4430467;32;34798;-80
2022/04/30 12:59:39;;;;;;;4.85;2.80;;;;;;;23.20;25.61;100186.72;4430636;32;35023;-81
2022/04/30 13:02:29;;;;;;;4.47;2.83;;;;;;;22.70;24.20;100174.94;4431475;32;34595;-80
2022/04/30 13:05:19;;;;;;;4.72;2.78;;;;;;;22.77;26.15;100172.25;4420726;32;35155;-79
2022/04/30 13:08:09;;;;;;;4.82;2.62;;;;;;;23.04;24.48;100169.37;4420279;32;34671;-79
2022/04/30 13:14:05;;;;;;;4.35;2.70;;;;;;;22.83;24.71;100161.53;4431890;32;34083;-79
2022/04/30 13:16:54;;;;;;;6.37;3.10;;;;;;;23.24;24.41;100173.59;4417840;32;33807;-79
2022/04/30 13:19:44;;;;;;;5.10;3.15;;;;;;;22.98;25.24;100168.12;4412768;32;35611;-80
2022/04/30 13:25:36;;;;;;;5.15;3.05;;;;;;;24.06;23.25;100151.12;4411756;32;35354;-79
2022/04/30 13:28:29;;;;;;;4.43;2.92;;;;;;;24.58;22.94;100146.22;4419380;32;34340;-79
2022/04/30 13:31:26;;;;;;;5.35;3.12;;;;;;;24.97;24.76;100153.97;4430147;32;34719;-78
2022/04/30 13:34:16;;;;;;;5.57;2.92;;;;;;;25.54;22.66;100142.84;4429813;32;34956;-78
2022/04/30 13:37:09;;;;;;;4.72;3.00;;;;;;;25.68;22.43;100141.25;4433025;32;34727;-78
2022/04/30 13:39:56;;;;;;;6.12;3.20;;;;;;;26.12;20.87;100142.81;4430301;32;33098;-79
2022/04/30 13:45:42;;;;;;;4.93;3.40;;;;;;;25.01;22.30;100131.53;4431627;32;36342;-79
2022/04/30 13:48:37;;;;;;;4.95;3.37;;;;;;;25.53;21.66;100115.19;4432978;32;35810;-80
2022/04/30 13:51:32;;;;;;;7.35;3.83;;;;;;;25.74;24.72;100117.19;4433229;32;34325;-79
2022/04/30 13:54:21;;;;;;;5.18;3.55;;;;;;;25.93;22.32;100118.81;4433309;32;35154;-79
2022/04/30 13:57:10;;;;;;;6.78;3.70;;;;;;;25.77;23.51;100117.16;4432586;32;35938;-79
2022/04/30 14:00:05;;;;;;;5.25;3.50;;;;;;;25.95;22.95;100124.78;4432787;32;35461;-80
2022/04/30 14:02:55;;;;;;;6.68;3.75;;;;;;;25.25;22.45;100116.00;4422715;32;34081;-79
2022/04/30 14:05:52;;;;;;;4.60;3.25;;;;;;;25.22;22.42;100116.78;4421445;32;34178;-80
2022/04/30 14:08:40;;;;;;;5.03;3.22;;;;;;;24.61;23.73;100109.00;4431799;32;36475;-80
2022/04/30 14:11:30;;;;;;;5.57;3.00;;;;;;;23.59;23.63;100113.56;4422177;32;34537;-80
2022/04/30 14:20:37;;;;;;;5.15;2.60;;;;;;;23.57;25.04;100113.16;4432478;32;34963;-79
2022/04/30 14:23:35;;;;;;;5.97;2.62;;;;;;;23.66;24.11;100113.62;4432869;32;35375;-80
2022/04/30 14:26:28;;;;;;;5.18;2.92;;;;;;;24.10;22.80;100109.13;4433784;32;33961;-79
2022/04/30 14:29:15;;;;;;;4.20;2.83;;;;;;;23.62;23.68;100118.37;4411209;32;35504;-79
2022/04/30 14:32:05;;;;;;;5.18;3.00;;;;;;;23.57;24.20;100104.78;4420838;32;34966;-79
2022/04/30 14:34:54;;;;;;;5.75;2.78;;;;;;;23.15;24.73;100108.81;4433826;32;33456;-79
2022/04/30 14:37:42;;;;;;;;;;;;;;;23.31;24.33;100106.56;4435079;32;34330;-79